createdAt,value
2019-06-08T00:01:16.443Z,100801.55
2019-06-08T00:03:47.603Z,100798.53
2019-06-08T00:06:18.865Z,100801.17
2019-06-08T00:08:49.919Z,100819.52
2019-06-08T00:11:21.180Z,100821.70
2019-06-08T00:13:52.260Z,100815.95
2019-06-08T00:16:23.817Z,100806.13
2019-06-08T00:19:01.756Z,100802.52
2019-06-08T00:21:32.849Z,100772.13
2019-06-08T00:24:03.975Z,100743.20
2019-06-08T00:26:35.059Z,100709.34
2019-06-08T00:29:06.123Z,100730.95
2019-06-08T00:31:37.216Z,100750.20
2019-06-08T00:34:08.284Z,100706.81
2019-06-08T00:36:39.376Z,100692.52
2019-06-08T00:39:10.427Z,100676.06
2019-06-08T00:41:41.500Z,100651.52
2019-06-08T00:44:12.559Z,100651.22
2019-06-08T00:46:43.720Z,100670.56
2019-06-08T00:49:14.778Z,100768.66
2019-06-08T00:51:45.859Z,100793.20
2019-06-08T00:54:17.397Z,100801.22
2019-06-08T00:56:48.554Z,100801.22
2019-06-08T00:59:19.954Z,100797.65
2019-06-08T01:01:51.076Z,100786.95
2019-06-08T01:04:22.725Z,100765.97
2019-06-08T01:06:53.907Z,100750.40
2019-06-08T01:09:26.242Z,100733.87
2019-06-08T01:11:57.465Z,100708.90
2019-06-08T01:14:29.116Z,100681.22
2019-06-08T01:17:00.185Z,100705.37
2019-06-08T01:19:32.960Z,100744.27
2019-06-08T01:22:04.044Z,100770.23
2019-06-08T01:24:36.147Z,100785.92
2019-06-08T01:27:07.249Z,100782.81
2019-06-08T01:29:38.333Z,100771.73
2019-06-08T01:32:09.389Z,100775.00
2019-06-08T01:34:40.479Z,100772.35
2019-06-08T01:37:11.545Z,100782.21
2019-06-08T01:39:50.449Z,100784.09
2019-06-08T01:42:21.512Z,100788.66
2019-06-08T01:44:52.580Z,100800.01
2019-06-08T01:47:24.621Z,100793.88
2019-06-08T01:49:55.826Z,100806.03
2019-06-08T01:52:33.594Z,100816.34
2019-06-08T01:55:06.600Z,100826.27
2019-06-08T01:57:37.696Z,100829.03
2019-06-08T02:02:42.196Z,100823.80
2019-06-08T02:05:16.430Z,100820.81
2019-06-08T02:07:47.513Z,100807.47
2019-06-08T02:10:19.108Z,100804.97
2019-06-08T02:12:50.192Z,100807.80
2019-06-08T02:15:21.984Z,100827.64
2019-06-08T02:17:53.068Z,100827.75
2019-06-08T02:20:28.754Z,100810.34
2019-06-08T02:22:59.896Z,100806.44
2019-06-08T02:25:31.418Z,100810.95
2019-06-08T02:28:02.563Z,100822.56
2019-06-08T02:30:37.120Z,100819.45
2019-06-08T02:33:07.380Z,100822.56
2019-06-08T02:35:45.581Z,100824.75
2019-06-08T02:38:16.640Z,100810.91
2019-06-08T02:40:47.734Z,100793.48
2019-06-08T02:43:18.810Z,100783.67
2019-06-08T02:45:49.944Z,100775.63
2019-06-08T02:48:21.042Z,100789.45
2019-06-08T02:50:57.119Z,100776.05
2019-06-08T02:53:29.488Z,100791.22
2019-06-08T02:56:02.099Z,100787.66
2019-06-08T02:58:37.907Z,100781.45
2019-06-08T03:01:08.835Z,100773.86
2019-06-08T03:03:46.172Z,100770.33
2019-06-08T03:06:20.582Z,100777.50
2019-06-08T03:08:52.503Z,100788.72
2019-06-08T03:11:23.970Z,100808.87
2019-06-08T03:13:58.256Z,100812.05
2019-06-08T03:16:31.115Z,100810.28
2019-06-08T03:19:19.947Z,100807.21
2019-06-08T03:21:37.980Z,100813.56
2019-06-08T03:24:08.794Z,100812.22
2019-06-08T03:26:41.871Z,100806.02
2019-06-08T03:29:12.651Z,100818.15
2019-06-08T03:31:54.306Z,100815.50
2019-06-08T03:34:16.539Z,100811.05
2019-06-08T03:36:55.211Z,100821.36
2019-06-08T03:39:20.389Z,100836.20
2019-06-08T03:41:51.468Z,100843.47
2019-06-08T03:44:22.551Z,100846.19
2019-06-08T03:46:53.650Z,100846.71
2019-06-08T03:49:41.433Z,100854.78
2019-06-08T03:51:57.678Z,100858.35
2019-06-08T03:54:28.764Z,100866.42
2019-06-08T03:56:59.837Z,100874.92
2019-06-08T03:59:30.923Z,100891.53
2019-06-08T04:02:02.009Z,100909.88
2019-06-08T04:04:33.086Z,100900.52
2019-06-08T04:07:04.151Z,100889.86
2019-06-08T04:09:35.227Z,100888.53
2019-06-08T04:12:06.355Z,100876.53
2019-06-08T04:14:39.876Z,100867.15
2019-06-08T04:17:11.103Z,100873.95
2019-06-08T04:20:05.455Z,100869.95
2019-06-08T04:22:14.973Z,100859.69
2019-06-08T04:24:46.632Z,100861.03
2019-06-08T04:27:17.801Z,100859.73
2019-06-08T04:29:50.172Z,100864.63
2019-06-08T04:32:21.412Z,100887.41
2019-06-08T04:34:52.487Z,100884.73
2019-06-08T04:37:23.655Z,100906.59
2019-06-08T04:39:54.766Z,100914.18
2019-06-08T04:42:25.857Z,100928.43
2019-06-08T04:45:07.714Z,100925.36
2019-06-08T04:47:40.741Z,100911.50
2019-06-08T04:50:22.608Z,100901.27
2019-06-08T04:52:44.922Z,100900.81
2019-06-08T04:55:16.344Z,100893.69
2019-06-08T04:57:48.707Z,100896.79
2019-06-08T05:00:21.130Z,100895.45
2019-06-08T05:02:52.183Z,100889.17
2019-06-08T05:05:23.266Z,100885.16
2019-06-08T05:07:54.346Z,100896.27
2019-06-08T05:10:25.416Z,100911.44
2019-06-08T05:13:02.241Z,100924.38
2019-06-08T05:15:33.390Z,100919.02
2019-06-08T05:18:04.719Z,100920.75
2019-06-08T05:20:39.270Z,100918.92
2019-06-08T05:23:08.558Z,100915.78
2019-06-08T05:25:39.637Z,100919.78
2019-06-08T05:28:10.707Z,100928.21
2019-06-08T05:30:47.742Z,100929.98
2019-06-08T05:33:18.822Z,100927.72
2019-06-08T05:35:49.901Z,100923.28
2019-06-08T05:38:20.968Z,100929.48
2019-06-08T05:40:52.070Z,100926.71
2019-06-08T05:43:23.131Z,100935.17
2019-06-08T05:45:54.228Z,100939.11
2019-06-08T05:48:25.292Z,100941.75
2019-06-08T05:51:03.566Z,100947.47
2019-06-08T05:53:29.134Z,100940.67
2019-06-08T05:56:00.227Z,100950.48
2019-06-08T05:58:31.288Z,100946.46
2019-06-08T06:01:02.711Z,100945.55
2019-06-08T06:03:33.805Z,100950.91
2019-06-08T06:06:04.866Z,100961.20
2019-06-08T06:08:35.926Z,100967.91
2019-06-08T06:11:07.010Z,100958.53
2019-06-08T06:13:38.079Z,100949.14
2019-06-08T06:16:09.168Z,100948.23
2019-06-08T06:18:41.162Z,100961.54
2019-06-08T06:21:12.655Z,100958.83
2019-06-08T06:23:45.131Z,100965.44
2019-06-08T06:26:16.261Z,100962.30
2019-06-08T06:28:47.639Z,100967.17
2019-06-08T06:31:18.810Z,100967.92
2019-06-08T06:33:50.128Z,100972.20
2019-06-08T06:36:21.236Z,100965.79
2019-06-08T06:38:52.403Z,100963.40
2019-06-08T06:41:23.470Z,100971.73
2019-06-08T06:43:54.592Z,100988.05
2019-06-08T06:46:25.736Z,100976.73
2019-06-08T06:48:56.856Z,100997.17
2019-06-08T06:51:28.188Z,100999.27
2019-06-08T06:53:59.240Z,101011.66
2019-06-08T06:56:30.335Z,101015.02
2019-06-08T06:59:01.385Z,101016.69
2019-06-08T07:01:32.901Z,101031.77
2019-06-08T07:04:04.463Z,101028.56
2019-06-08T07:06:35.531Z,101033.30
2019-06-08T07:09:07.556Z,101039.05
2019-06-08T07:11:38.628Z,101055.91
2019-06-08T07:14:09.719Z,101057.15
2019-06-08T07:16:40.782Z,101054.00
2019-06-08T07:19:11.862Z,101057.05
2019-06-08T07:21:42.948Z,101064.08
2019-06-08T07:24:14.020Z,101059.97
2019-06-08T07:26:46.270Z,101070.30
2019-06-08T07:29:17.449Z,101048.38
2019-06-08T07:31:49.937Z,101057.78
2019-06-08T07:34:21.479Z,101057.75
2019-06-08T07:36:55.382Z,101054.60
2019-06-08T07:39:26.660Z,101051.34
2019-06-08T07:41:57.704Z,101054.35
2019-06-08T07:44:28.821Z,101056.78
2019-06-08T07:47:00.152Z,101055.68
2019-06-08T07:49:31.343Z,101071.93
2019-06-08T07:52:10.114Z,101052.74
2019-06-08T07:54:35.223Z,101061.00
2019-06-08T07:57:06.276Z,101059.51
2019-06-08T07:59:37.359Z,101064.31
2019-06-08T08:02:08.440Z,101085.66
2019-06-08T08:04:39.525Z,101070.26
2019-06-08T08:07:10.611Z,101075.48
2019-06-08T08:09:41.755Z,101079.44
2019-06-08T08:12:12.817Z,101077.55
2019-06-08T08:14:43.892Z,101083.77
2019-06-08T08:17:15.067Z,101089.03
2019-06-08T08:19:46.119Z,101093.91
2019-06-08T08:22:22.972Z,101093.38
2019-06-08T08:24:52.444Z,101092.45
2019-06-08T08:27:22.771Z,101093.27
2019-06-08T08:29:53.832Z,101101.71
2019-06-08T08:32:24.913Z,101102.48
2019-06-08T08:35:05.805Z,101095.64
2019-06-08T08:37:38.088Z,101102.66
2019-06-08T08:40:09.673Z,101112.00
2019-06-08T08:42:40.838Z,101107.96
2019-06-08T08:45:12.220Z,101106.96
2019-06-08T08:47:43.304Z,101109.56
2019-06-08T08:50:14.798Z,101121.55
2019-06-08T08:52:47.708Z,101116.05
2019-06-08T08:55:20.534Z,101124.84
2019-06-08T08:57:52.175Z,101113.50
2019-06-08T09:00:24.478Z,101117.83
2019-06-08T09:03:16.250Z,101117.08
2019-06-08T09:05:28.308Z,101126.22
2019-06-08T09:08:02.003Z,101122.81
2019-06-08T09:10:32.162Z,101127.02
2019-06-08T09:13:04.741Z,101129.91
2019-06-08T09:15:37.755Z,101128.73
2019-06-08T09:18:08.615Z,101133.91
2019-06-08T09:20:39.705Z,101129.61
2019-06-08T09:23:16.536Z,101137.68
2019-06-08T09:25:48.325Z,101140.33
2019-06-08T09:28:18.925Z,101127.66
2019-06-08T09:30:49.987Z,101135.69
2019-06-08T09:33:21.234Z,101140.48
2019-06-08T09:35:53.559Z,101147.05
2019-06-08T09:38:25.083Z,101145.06
2019-06-08T09:40:59.166Z,101139.08
2019-06-08T09:43:29.092Z,101152.80
2019-06-08T09:46:02.097Z,101145.87
2019-06-08T09:48:32.982Z,101166.25
2019-06-08T09:51:05.472Z,101165.55
2019-06-08T09:53:40.781Z,101178.21
2019-06-08T09:56:10.010Z,101171.28
2019-06-08T09:58:41.359Z,101173.77
2019-06-08T10:01:12.576Z,101175.81
2019-06-08T10:03:43.664Z,101189.10
2019-06-08T10:06:14.767Z,101194.07
2019-06-08T10:08:47.915Z,101191.47
2019-06-08T10:11:18.605Z,101192.02
2019-06-08T10:13:49.703Z,101208.77
2019-06-08T10:16:20.826Z,101206.30
2019-06-08T10:18:55.008Z,101211.92
2019-06-08T10:21:28.229Z,101221.64
2019-06-08T10:24:00.999Z,101212.30
2019-06-08T10:26:31.181Z,101218.94
2019-06-08T10:29:04.961Z,101226.07
2019-06-08T10:31:39.901Z,101231.09
2019-06-08T10:34:10.909Z,101227.70
2019-06-08T10:36:41.719Z,101227.47
2019-06-08T10:39:12.871Z,101230.36
2019-06-08T10:41:45.009Z,101239.20
2019-06-08T10:44:18.234Z,101251.53
2019-06-08T10:46:48.861Z,101266.60
2019-06-08T10:49:20.068Z,101251.58
2019-06-08T10:51:51.074Z,101262.38
2019-06-08T10:54:22.150Z,101266.31
2019-06-08T10:56:53.216Z,101247.95
2019-06-08T10:59:24.300Z,101265.48
2019-06-08T11:01:55.377Z,101253.42
2019-06-08T11:04:28.575Z,101247.95
2019-06-08T11:07:05.601Z,101250.36
2019-06-08T11:09:32.060Z,101255.08
2019-06-08T11:12:03.968Z,101261.95
2019-06-08T11:14:38.261Z,101256.70
2019-06-08T11:17:10.971Z,101266.75
2019-06-08T11:19:41.572Z,101260.32
2019-06-08T11:22:14.618Z,101279.41
2019-06-08T11:24:45.425Z,101268.09
2019-06-08T11:27:18.688Z,101276.94
2019-06-08T11:29:49.398Z,101276.41
2019-06-08T11:32:20.483Z,101278.92
2019-06-08T11:34:51.634Z,101275.70
2019-06-08T11:37:22.688Z,101287.20
2019-06-08T11:39:53.749Z,101288.88
2019-06-08T11:42:27.822Z,101294.59
2019-06-08T11:44:58.647Z,101303.34
2019-06-08T11:47:30.987Z,101309.44
2019-06-08T11:50:06.589Z,101309.52
2019-06-08T11:52:38.500Z,101301.66
2019-06-08T11:55:13.109Z,101310.98
2019-06-08T11:57:44.159Z,101318.03
2019-06-08T12:00:27.705Z,101316.97
2019-06-08T12:02:57.967Z,101308.22
2019-06-08T12:05:29.275Z,101310.73
2019-06-08T12:08:02.869Z,101314.50
2019-06-08T12:10:33.925Z,101322.36
2019-06-08T12:13:05.284Z,101337.44
2019-06-08T12:15:38.442Z,101326.13
2019-06-08T12:18:11.406Z,101336.45
2019-06-08T12:20:42.761Z,101336.38
2019-06-08T12:23:14.169Z,101334.56
2019-06-08T12:25:45.273Z,101332.27
2019-06-08T12:28:17.819Z,101339.02
2019-06-08T12:30:49.010Z,101339.02
2019-06-08T12:33:22.785Z,101341.30
2019-06-08T12:35:52.854Z,101346.70
2019-06-08T12:38:23.915Z,101343.20
2019-06-08T12:40:54.998Z,101340.51
2019-06-08T12:43:28.325Z,101347.17
2019-06-08T12:46:00.645Z,101347.07
2019-06-08T12:48:31.709Z,101348.29
2019-06-08T12:51:02.790Z,101347.27
2019-06-08T12:53:33.854Z,101347.83
2019-06-08T12:56:05.107Z,101347.41
2019-06-08T12:58:38.531Z,101346.01
2019-06-08T13:01:09.799Z,101352.31
2019-06-08T13:03:41.855Z,101350.95
2019-06-08T13:06:14.049Z,101358.39
2019-06-08T13:08:47.671Z,101360.38
2019-06-08T13:11:19.002Z,101369.12
2019-06-08T13:13:50.782Z,101372.87
2019-06-08T13:16:24.232Z,101368.73
2019-06-08T13:18:54.623Z,101363.88
2019-06-08T13:21:34.649Z,101364.12
2019-06-08T13:23:58.502Z,101360.00
2019-06-08T13:26:31.252Z,101358.56
2019-06-08T13:29:02.347Z,101367.52
2019-06-08T13:31:33.415Z,101367.52
2019-06-08T13:34:04.487Z,101381.67
2019-06-08T13:36:35.557Z,101373.39
2019-06-08T13:39:09.891Z,101369.58
2019-06-08T13:41:40.024Z,101363.94
2019-06-08T13:44:11.519Z,101364.59
2019-06-08T13:46:42.663Z,101368.77
2019-06-08T13:49:14.157Z,101375.63
2019-06-08T13:55:36.497Z,101379.23
2019-06-08T13:57:51.084Z,101376.47
2019-06-08T14:00:38.523Z,101379.70
2019-06-08T14:03:10.092Z,101374.70
2019-06-08T14:05:41.190Z,101371.66
2019-06-08T14:08:12.263Z,101383.80
2019-06-08T14:10:43.581Z,101386.50
2019-06-08T14:13:15.160Z,101388.36
2019-06-08T14:15:54.456Z,101388.54
2019-06-08T14:18:29.986Z,101381.03
2019-06-08T14:20:59.193Z,101394.23
2019-06-08T14:23:30.364Z,101382.69
2019-06-08T14:26:01.424Z,101388.12
2019-06-08T14:28:34.468Z,101389.01
2019-06-08T14:31:08.338Z,101380.45
2019-06-08T14:33:38.314Z,101392.00
2019-06-08T14:36:09.363Z,101390.52
2019-06-08T14:38:42.072Z,101383.22
2019-06-08T14:41:13.387Z,101380.64
2019-06-08T14:43:44.475Z,101388.38
2019-06-08T14:46:15.549Z,101375.98
2019-06-08T14:48:46.634Z,101385.25
2019-06-08T14:51:18.681Z,101381.30
2019-06-08T14:53:49.948Z,101380.66
2019-06-08T14:56:21.343Z,101369.14
2019-06-08T14:58:52.467Z,101368.84
2019-06-08T15:01:25.368Z,101375.35
2019-06-08T15:03:58.470Z,101382.66
2019-06-08T15:06:33.957Z,101386.09
2019-06-08T15:09:01.855Z,101387.59
2019-06-08T15:11:35.148Z,101384.56
2019-06-08T15:14:08.402Z,101391.84
2019-06-08T15:16:41.625Z,101372.92
2019-06-08T15:19:11.790Z,101389.61
2019-06-08T15:21:42.849Z,101381.03
2019-06-08T15:24:13.990Z,101382.84
2019-06-08T15:26:48.678Z,101385.50
2019-06-08T15:29:20.799Z,101375.98
2019-06-08T15:31:51.867Z,101389.87
2019-06-08T15:34:23.195Z,101384.01
2019-06-08T15:36:54.381Z,101392.20
2019-06-08T15:39:26.156Z,101395.42
2019-06-08T15:42:00.169Z,101398.19
2019-06-08T15:44:32.445Z,101397.39
2019-06-08T15:47:03.784Z,101386.69
2019-06-08T15:49:34.844Z,101386.83
2019-06-08T15:52:05.934Z,101392.78
2019-06-08T15:54:40.436Z,101386.08
2019-06-08T15:57:09.785Z,101388.84
2019-06-08T15:59:41.941Z,101393.55
2019-06-08T16:02:13.225Z,101383.81
2019-06-08T16:04:44.362Z,101386.60
2019-06-08T16:07:16.593Z,101392.52
2019-06-08T16:09:47.926Z,101409.20
2019-06-08T16:12:18.995Z,101395.83
2019-06-08T16:14:50.094Z,101400.41
2019-06-08T16:17:21.146Z,101392.44
2019-06-08T16:19:53.229Z,101385.27
2019-06-08T16:22:25.725Z,101391.63
2019-06-08T16:24:56.814Z,101393.50
2019-06-08T16:27:28.016Z,101391.73
2019-06-08T16:30:00.171Z,101397.27
2019-06-08T16:32:31.559Z,101389.31
2019-06-08T16:35:02.711Z,101397.64
2019-06-08T16:37:33.764Z,101395.89
2019-06-08T16:40:08.055Z,101405.14
2019-06-08T16:42:39.122Z,101398.99
2019-06-08T16:45:11.378Z,101396.05
2019-06-08T16:47:43.739Z,101393.88
2019-06-08T16:50:24.230Z,101398.05
2019-06-08T16:52:47.924Z,101404.84
2019-06-08T16:55:19.007Z,101413.37
2019-06-08T16:57:50.081Z,101415.65
2019-06-08T17:00:40.214Z,101410.33
2019-06-08T17:02:54.118Z,101413.96
2019-06-08T17:05:25.282Z,101412.20
2019-06-08T17:07:56.330Z,101419.78
2019-06-08T17:10:27.459Z,101416.11
2019-06-08T17:12:58.511Z,101423.33
2019-06-08T17:15:30.222Z,101419.65
2019-06-08T17:18:02.517Z,101426.45
2019-06-08T17:20:34.087Z,101423.83
2019-06-08T17:23:05.334Z,101428.81
2019-06-08T17:25:36.650Z,101422.53
2019-06-08T17:28:07.796Z,101424.76
2019-06-08T17:30:39.374Z,101431.98
2019-06-08T17:33:10.696Z,101427.97
2019-06-08T17:35:42.336Z,101438.35
2019-06-08T17:38:13.544Z,101442.95
2019-06-08T17:40:44.663Z,101440.77
2019-06-08T17:43:15.750Z,101448.94
2019-06-08T17:45:46.877Z,101448.64
2019-06-08T17:48:17.960Z,101445.66
2019-06-08T17:50:50.006Z,101444.48
2019-06-08T17:53:21.266Z,101450.42
2019-06-08T17:55:52.364Z,101449.25
2019-06-08T17:58:23.441Z,101455.78
2019-06-08T18:00:54.494Z,101453.76
2019-06-08T18:03:27.877Z,101455.23
2019-06-08T18:05:59.041Z,101453.55
2019-06-08T18:08:30.131Z,101464.80
2019-06-08T18:11:01.217Z,101460.84
2019-06-08T18:13:32.303Z,101474.41
2019-06-08T18:16:03.393Z,101469.94
2019-06-08T18:18:34.503Z,101480.69
2019-06-08T18:21:07.976Z,101476.17
2019-06-08T18:23:40.377Z,101478.45
2019-06-08T18:26:11.376Z,101484.27
2019-06-08T18:28:44.087Z,101476.64
2019-06-08T18:31:15.377Z,101483.42
2019-06-08T18:33:50.083Z,101485.70
2019-06-08T18:36:19.295Z,101484.47
2019-06-08T18:38:50.360Z,101478.77
2019-06-08T18:41:21.578Z,101484.28
2019-06-08T18:43:53.746Z,101500.97
2019-06-08T18:46:27.078Z,101539.77
2019-06-08T18:48:58.009Z,101570.62
2019-06-08T18:51:29.124Z,101572.37
2019-06-08T18:54:11.337Z,101567.81
2019-06-08T18:56:32.966Z,101573.11
2019-06-08T18:59:04.020Z,101561.23
2019-06-08T19:01:38.876Z,101570.09
2019-06-08T19:04:09.833Z,101572.57
2019-06-08T19:06:42.296Z,101568.80
2019-06-08T19:09:13.680Z,101572.13
2019-06-08T19:11:46.344Z,101570.98
2019-06-08T19:14:17.952Z,101572.04
2019-06-08T19:16:54.464Z,101568.14
2019-06-08T19:19:23.196Z,101568.77
2019-06-08T19:21:54.285Z,101568.86
2019-06-08T19:24:25.338Z,101571.65
2019-06-08T19:26:57.843Z,101584.71
2019-06-08T19:29:29.218Z,101576.73
2019-06-08T19:32:00.752Z,101580.87
2019-06-08T19:34:33.351Z,101586.28
2019-06-08T19:37:04.690Z,101582.34
2019-06-08T19:39:35.763Z,101577.05
2019-06-08T19:42:07.986Z,101574.39
2019-06-08T19:44:44.821Z,101580.27
2019-06-08T19:47:11.935Z,101587.05
2019-06-08T19:49:43.009Z,101588.86
2019-06-08T19:52:14.091Z,101586.66
2019-06-08T19:54:47.084Z,101596.13
2019-06-08T19:57:17.947Z,101597.08
2019-06-08T19:59:49.653Z,101605.67
2019-06-08T20:02:20.775Z,101603.47
2019-06-08T20:04:53.115Z,101609.37
2019-06-08T20:07:24.683Z,101605.86
2019-06-08T20:09:57.143Z,101616.22
2019-06-08T20:12:28.367Z,101619.85
2019-06-08T20:14:59.450Z,101621.28
2019-06-08T20:17:30.526Z,101618.16
2019-06-08T20:20:01.609Z,101618.26
2019-06-08T20:22:32.689Z,101620.98
2019-06-08T20:25:09.685Z,101619.20
2019-06-08T20:27:37.339Z,101632.70
2019-06-08T20:30:12.277Z,101631.02
2019-06-08T20:32:44.443Z,101634.28
2019-06-08T20:35:17.438Z,101638.37
2019-06-08T20:37:49.878Z,101635.77
2019-06-08T20:40:21.132Z,101639.00
2019-06-08T20:42:54.581Z,101641.72
2019-06-08T20:45:24.954Z,101646.66
2019-06-08T20:47:58.218Z,101648.52
2019-06-08T20:50:28.793Z,101651.69
2019-06-08T20:52:59.879Z,101650.88
2019-06-08T20:55:30.941Z,101657.66
2019-06-08T20:58:08.019Z,101658.14
2019-06-08T21:00:38.860Z,101655.08
2019-06-08T21:03:09.935Z,101658.70
2019-06-08T21:05:41.069Z,101665.47
2019-06-08T21:08:12.150Z,101670.42
2019-06-08T21:10:44.264Z,101670.05
2019-06-08T21:13:17.945Z,101667.81
2019-06-08T21:15:52.637Z,101659.77
2019-06-08T21:18:21.567Z,101659.86
2019-06-08T21:20:53.129Z,101662.56
2019-06-08T21:23:24.295Z,101667.51
2019-06-08T21:25:59.254Z,101668.02
2019-06-08T21:28:28.154Z,101661.34
2019-06-08T21:31:02.174Z,101665.00
2019-06-08T21:33:32.036Z,101666.36
2019-06-08T21:36:05.149Z,101662.85
2019-06-08T21:38:37.717Z,101663.33
2019-06-08T21:41:08.836Z,101666.55
2019-06-08T21:43:41.876Z,101669.25
2019-06-08T21:46:12.937Z,101672.02
2019-06-08T21:48:44.048Z,101675.67
2019-06-08T21:51:15.112Z,101675.26
2019-06-08T21:53:48.243Z,101678.45
2019-06-08T21:56:18.955Z,101678.92
2019-06-08T21:59:00.923Z,101677.23
2019-06-08T22:01:32.733Z,101674.16
2019-06-08T22:04:04.034Z,101678.69
2019-06-08T22:06:37.237Z,101675.16
2019-06-08T22:09:09.515Z,101675.64
2019-06-08T22:11:40.600Z,101675.26
2019-06-08T22:14:11.685Z,101673.48
2019-06-08T22:16:42.760Z,101674.45
2019-06-08T22:19:13.825Z,101670.89
2019-06-08T22:21:44.930Z,101675.38
2019-06-08T22:24:17.146Z,101683.94
2019-06-08T22:26:48.343Z,101683.95
2019-06-08T22:29:19.458Z,101682.17
2019-06-08T22:31:52.189Z,101683.57
2019-06-08T22:34:23.334Z,101692.53
2019-06-08T22:36:54.392Z,101693.00
2019-06-08T22:39:27.987Z,101699.77
2019-06-08T22:42:00.817Z,101698.44
2019-06-08T22:44:30.988Z,101707.86
2019-06-08T22:47:03.645Z,101703.83
2019-06-08T22:49:38.234Z,101707.02
2019-06-08T22:52:08.955Z,101707.00
2019-06-08T22:54:40.049Z,101702.98
2019-06-08T22:57:11.105Z,101704.84
2019-06-08T22:59:42.192Z,101706.64
2019-06-08T23:02:13.275Z,101710.23
2019-06-08T23:04:44.591Z,101710.73
2019-06-08T23:07:26.551Z,101717.01
2019-06-08T23:09:48.467Z,101720.61
2019-06-08T23:12:19.515Z,101724.23
2019-06-08T23:14:50.602Z,101722.45
2019-06-08T23:17:21.666Z,101719.36
2019-06-08T23:19:52.748Z,101720.31
2019-06-08T23:22:23.840Z,101724.80
2019-06-08T23:24:55.597Z,101722.63
2019-06-08T23:27:27.166Z,101723.53
2019-06-08T23:30:00.035Z,101723.59
2019-06-08T23:32:31.053Z,101725.39
2019-06-08T23:35:02.956Z,101721.87
2019-06-08T23:37:34.092Z,101724.59
2019-06-08T23:40:07.634Z,101725.55
2019-06-08T23:42:38.965Z,101728.24
2019-06-08T23:45:10.859Z,101726.95
2019-06-08T23:47:42.081Z,101730.09
2019-06-08T23:50:14.453Z,101743.08
2019-06-08T23:52:47.557Z,101740.00
2019-06-08T23:55:18.393Z,101740.02
2019-06-08T23:57:50.395Z,101746.33
